createdAt,value
2023-04-30T00:01:32.556Z,7.10
2023-04-30T00:03:59.422Z,7.00
2023-04-30T00:06:28.389Z,7.00
2023-04-30T00:08:55.640Z,7.00
2023-04-30T00:11:22.633Z,7.00
2023-04-30T00:13:49.782Z,7.00
2023-04-30T00:16:16.614Z,7.00
2023-04-30T00:18:43.525Z,6.90
2023-04-30T00:21:10.284Z,6.90
2023-04-30T00:23:37.137Z,6.90
2023-04-30T00:26:03.906Z,6.90
2023-04-30T00:28:30.703Z,6.90
2023-04-30T00:30:57.438Z,6.80
2023-04-30T00:33:24.255Z,6.80
2023-04-30T00:35:51.002Z,6.80
2023-04-30T00:38:17.775Z,6.80
2023-04-30T00:40:44.878Z,6.80
2023-04-30T00:43:11.694Z,6.90
2023-04-30T00:45:38.515Z,6.90
2023-04-30T00:48:05.431Z,6.90
2023-04-30T00:50:32.303Z,6.90
2023-04-30T00:52:59.709Z,6.90
2023-04-30T00:55:26.874Z,6.90
2023-04-30T00:57:54.175Z,6.80
2023-04-30T01:00:21.705Z,6.80
2023-04-30T01:02:48.638Z,6.80
2023-04-30T01:05:15.488Z,6.90
2023-04-30T01:07:45.406Z,6.90
2023-04-30T01:10:15.737Z,6.90
2023-04-30T01:12:42.439Z,6.90
2023-04-30T01:15:15.379Z,6.90
2023-04-30T01:17:48.438Z,6.90
2023-04-30T01:20:15.268Z,7.00
2023-04-30T01:22:41.981Z,7.00
2023-04-30T01:25:27.517Z,6.90
2023-04-30T01:27:54.222Z,6.90
2023-04-30T01:30:21.878Z,6.90
2023-04-30T01:32:48.677Z,6.90
2023-04-30T01:35:16.281Z,7.00
2023-04-30T01:37:52.833Z,7.00
2023-04-30T01:40:24.501Z,7.00
2023-04-30T01:43:00.520Z,7.00
2023-04-30T01:45:30.280Z,7.00
2023-04-30T01:48:15.578Z,7.00
2023-04-30T01:50:49.684Z,7.00
2023-04-30T01:53:28.011Z,7.00
2023-04-30T01:55:59.931Z,7.00
2023-04-30T01:58:27.644Z,7.00
2023-04-30T02:00:54.428Z,7.10
2023-04-30T02:03:21.226Z,7.10
2023-04-30T02:05:48.475Z,7.10
2023-04-30T02:08:15.291Z,7.10
2023-04-30T02:10:42.149Z,7.10
2023-04-30T02:13:08.923Z,7.10
2023-04-30T02:15:35.727Z,7.10
2023-04-30T02:18:02.498Z,7.10
2023-04-30T02:20:29.329Z,7.10
2023-04-30T02:22:56.083Z,7.10
2023-04-30T02:25:22.808Z,7.10
2023-04-30T02:27:50.702Z,7.10
2023-04-30T02:30:17.548Z,7.10
2023-04-30T02:32:44.360Z,7.10
2023-04-30T02:35:11.334Z,7.10
2023-04-30T02:37:38.088Z,7.10
2023-04-30T02:40:05.215Z,7.20
2023-04-30T02:42:31.937Z,7.20
2023-04-30T02:44:59.434Z,7.20
2023-04-30T02:47:26.258Z,7.20
2023-04-30T02:49:53.414Z,7.20
2023-04-30T02:52:20.232Z,7.20
2023-04-30T02:54:47.007Z,7.20
2023-04-30T02:57:13.742Z,7.20
2023-04-30T02:59:40.512Z,7.20
2023-04-30T03:02:07.303Z,7.20
2023-04-30T03:04:34.042Z,7.30
2023-04-30T03:07:00.843Z,7.30
2023-04-30T03:09:27.675Z,7.20
2023-04-30T03:11:54.452Z,7.30
2023-04-30T03:14:21.211Z,7.30
2023-04-30T03:16:48.183Z,7.30
2023-04-30T03:19:15.241Z,7.30
2023-04-30T03:21:41.982Z,7.30
2023-04-30T03:24:08.790Z,7.30
2023-04-30T03:26:35.653Z,7.30
2023-04-30T03:29:02.429Z,7.40
2023-04-30T03:31:29.261Z,7.40
2023-04-30T03:33:56.130Z,7.40
2023-04-30T03:36:22.972Z,7.30
2023-04-30T03:38:49.804Z,7.40
2023-04-30T03:41:16.625Z,7.30
2023-04-30T03:43:43.474Z,7.40
2023-04-30T03:46:10.431Z,7.40
2023-04-30T03:48:37.308Z,7.40
2023-04-30T03:51:04.112Z,7.40
2023-04-30T03:53:30.913Z,7.40
2023-04-30T03:55:57.807Z,7.40
2023-04-30T03:58:24.709Z,7.40
2023-04-30T04:00:51.494Z,7.40
2023-04-30T04:03:18.415Z,7.40
2023-04-30T04:05:45.829Z,7.40
2023-04-30T04:08:12.588Z,7.40
2023-04-30T04:10:40.281Z,7.40
2023-04-30T04:13:07.158Z,7.40
2023-04-30T04:15:34.389Z,7.40
2023-04-30T04:18:01.254Z,7.40
2023-04-30T04:20:29.999Z,7.40
2023-04-30T04:22:57.315Z,7.40
2023-04-30T04:25:25.243Z,7.40
2023-04-30T04:27:52.524Z,7.40
2023-04-30T04:30:19.408Z,7.40
2023-04-30T04:32:51.950Z,7.40
2023-04-30T04:35:19.434Z,7.50
2023-04-30T04:37:46.235Z,7.50
2023-04-30T04:40:13.860Z,7.40
2023-04-30T04:42:40.700Z,7.50
2023-04-30T04:45:08.096Z,7.50
2023-04-30T04:47:35.097Z,7.50
2023-04-30T04:50:02.236Z,7.50
2023-04-30T04:52:29.037Z,7.50
2023-04-30T04:54:56.153Z,7.60
2023-04-30T04:57:22.969Z,7.60
2023-04-30T04:59:49.724Z,7.60
2023-04-30T05:02:16.573Z,7.60
2023-04-30T05:04:43.380Z,7.60
2023-04-30T05:07:11.125Z,7.60
2023-04-30T05:09:38.225Z,7.60
2023-04-30T05:12:05.248Z,7.60
2023-04-30T05:14:32.071Z,7.60
2023-04-30T05:16:58.917Z,7.60
2023-04-30T05:19:25.879Z,7.60
2023-04-30T05:21:52.675Z,7.60
2023-04-30T05:24:19.540Z,7.70
2023-04-30T05:26:46.566Z,7.70
2023-04-30T05:29:13.428Z,7.70
2023-04-30T05:31:40.368Z,7.70
2023-04-30T05:34:07.323Z,7.70
2023-04-30T05:36:34.269Z,7.80
2023-04-30T05:39:01.539Z,7.80
2023-04-30T05:41:28.417Z,7.80
2023-04-30T05:43:55.563Z,7.70
2023-04-30T05:46:22.445Z,7.80
2023-04-30T05:48:49.319Z,7.80
2023-04-30T05:51:16.194Z,7.80
2023-04-30T05:53:43.465Z,7.80
2023-04-30T05:56:10.518Z,7.90
2023-04-30T05:58:37.392Z,7.80
2023-04-30T06:01:04.225Z,7.80
2023-04-30T06:03:31.482Z,7.80
2023-04-30T06:05:58.400Z,7.80
2023-04-30T06:08:25.380Z,7.90
2023-04-30T06:10:52.288Z,7.80
2023-04-30T06:13:19.100Z,7.80
2023-04-30T06:15:46.351Z,7.80
2023-04-30T06:18:14.397Z,7.80
2023-04-30T06:20:41.320Z,7.90
2023-04-30T06:23:12.246Z,7.90
2023-04-30T06:25:39.420Z,7.90
